createdAt,value
2022-11-08T00:02:27.622Z,52408.11
2022-11-08T00:04:59.269Z,52422.17
2022-11-08T00:07:48.372Z,52416.14
2022-11-08T00:10:37.224Z,52440.66
2022-11-08T00:13:28.136Z,52415.34
2022-11-08T00:16:01.368Z,52422.17
2022-11-08T00:18:32.878Z,52427.39
2022-11-08T00:21:07.444Z,52433.02
2022-11-08T00:23:38.962Z,52416.95
2022-11-08T00:26:10.432Z,52437.45
2022-11-08T00:28:41.997Z,52422.17
2022-11-08T00:31:13.623Z,52414.13
2022-11-08T00:33:43.495Z,52423.38
2022-11-08T00:36:15.030Z,52405.29
2022-11-08T00:38:44.896Z,52431.41
2022-11-08T00:41:16.447Z,52425.79
2022-11-08T00:43:48.112Z,52418.15
2022-11-08T00:46:19.650Z,52415.34
2022-11-08T00:48:51.575Z,52404.89
2022-11-08T00:51:23.147Z,52414.13
2022-11-08T00:53:54.672Z,52416.14
2022-11-08T00:56:26.167Z,52405.29
2022-11-08T00:58:57.895Z,52396.45
2022-11-08T01:01:29.504Z,52414.53
2022-11-08T01:03:59.463Z,52401.27
2022-11-08T01:06:31.604Z,52412.52
2022-11-08T01:09:03.174Z,52408.91
2022-11-08T01:11:33.169Z,52413.73
2022-11-08T01:14:04.684Z,52387.61
2022-11-08T01:16:36.157Z,52399.26
2022-11-08T01:19:07.532Z,52399.27
2022-11-08T01:21:38.977Z,52404.89
2022-11-08T01:24:11.213Z,52410.12
2022-11-08T01:26:42.714Z,52390.42
2022-11-08T01:29:14.189Z,52414.13
2022-11-08T01:31:45.537Z,52403.28
2022-11-08T01:34:17.081Z,52404.49
2022-11-08T01:36:48.505Z,52399.66
2022-11-08T01:39:20.000Z,52406.90
2022-11-08T01:41:51.558Z,52402.07
2022-11-08T01:44:23.113Z,52404.89
2022-11-08T01:46:54.560Z,52399.66
2022-11-08T01:49:43.777Z,52414.53
2022-11-08T01:52:30.051Z,52386.80
2022-11-08T01:55:03.993Z,52404.89
2022-11-08T01:57:37.724Z,52424.58
2022-11-08T02:00:12.645Z,52406.90
2022-11-08T02:02:44.746Z,52389.21
2022-11-08T02:05:26.916Z,52400.46
2022-11-08T02:08:01.958Z,52390.42
2022-11-08T02:10:35.797Z,52398.46
2022-11-08T02:13:14.275Z,52400.46
2022-11-08T02:15:46.690Z,52406.90
2022-11-08T02:18:19.331Z,52408.91
2022-11-08T02:20:56.095Z,52406.90
2022-11-08T02:23:30.509Z,52397.26
2022-11-08T02:26:01.991Z,52398.86
2022-11-08T02:28:33.320Z,52416.95
2022-11-08T02:31:04.895Z,52424.18
2022-11-08T02:33:36.329Z,52410.91
2022-11-08T02:36:08.783Z,52405.29
2022-11-08T02:38:42.125Z,52412.52
2022-11-08T02:41:13.858Z,52406.90
2022-11-08T02:43:45.310Z,52424.58
2022-11-08T02:46:16.936Z,52399.26
2022-11-08T02:48:48.500Z,52397.65
2022-11-08T02:51:20.224Z,52410.92
2022-11-08T02:53:50.190Z,52420.96
2022-11-08T02:56:21.862Z,52410.92
2022-11-08T02:58:51.767Z,52410.52
2022-11-08T03:01:23.699Z,52404.89
2022-11-08T03:03:55.291Z,52429.01
2022-11-08T03:06:26.972Z,52414.93
2022-11-08T03:08:56.733Z,52412.12
2022-11-08T03:11:28.196Z,52419.36
2022-11-08T03:13:59.631Z,52384.39
2022-11-08T03:16:31.390Z,52407.30
2022-11-08T03:19:01.318Z,52420.16
2022-11-08T03:21:32.999Z,52412.93
2022-11-08T03:24:02.904Z,52404.49
2022-11-08T03:26:34.322Z,52411.32
2022-11-08T03:29:05.687Z,52427.79
2022-11-08T03:31:37.378Z,52401.68
2022-11-08T03:34:07.473Z,52409.31
2022-11-08T03:36:39.218Z,52409.31
2022-11-08T03:39:11.543Z,52408.11
2022-11-08T03:41:43.113Z,52392.84
2022-11-08T03:44:13.002Z,52396.05
2022-11-08T03:46:44.502Z,52407.30
2022-11-08T03:49:15.962Z,52407.70
2022-11-08T03:51:47.671Z,52422.97
2022-11-08T03:54:17.475Z,52410.52
2022-11-08T03:56:48.996Z,52415.34
2022-11-08T03:59:20.520Z,52417.75
2022-11-08T04:01:52.315Z,52406.50
2022-11-08T04:04:24.333Z,52406.50
2022-11-08T04:06:56.282Z,52404.09
2022-11-08T04:09:27.683Z,52403.68
2022-11-08T04:12:16.794Z,52415.74
2022-11-08T04:15:05.957Z,52396.45
2022-11-08T04:17:54.924Z,52409.31
2022-11-08T04:20:44.232Z,52411.32
2022-11-08T04:23:15.858Z,52415.74
2022-11-08T04:25:45.854Z,52417.75
2022-11-08T04:28:17.666Z,52411.32
2022-11-08T04:30:52.899Z,52423.38
2022-11-08T04:33:24.373Z,52412.93
2022-11-08T04:35:54.231Z,52411.32
2022-11-08T04:38:27.866Z,52420.16
2022-11-08T04:41:04.088Z,52422.57
2022-11-08T04:43:35.524Z,52403.68
2022-11-08T04:46:08.662Z,52422.98
2022-11-08T04:48:40.340Z,52424.18
2022-11-08T04:51:11.351Z,52410.92
2022-11-08T04:53:42.751Z,52423.78
2022-11-08T04:56:15.098Z,52421.77
2022-11-08T04:58:47.143Z,52420.16
2022-11-08T05:01:19.501Z,52413.73
2022-11-08T05:03:51.990Z,52423.78
2022-11-08T05:06:24.379Z,52428.60
2022-11-08T05:08:56.667Z,52425.79
2022-11-08T05:11:28.804Z,52434.23
2022-11-08T05:14:00.420Z,52421.37
2022-11-08T05:16:30.586Z,52425.38
2022-11-08T05:19:01.954Z,52412.52
2022-11-08T05:21:51.026Z,52404.89
2022-11-08T05:24:22.477Z,52416.14
2022-11-08T05:26:54.016Z,52417.35
2022-11-08T05:29:25.436Z,52419.76
2022-11-08T05:31:57.218Z,52407.30
2022-11-08T05:34:29.915Z,52413.33
2022-11-08T05:37:01.398Z,52408.51
2022-11-08T05:39:33.181Z,52410.91
2022-11-08T05:42:04.858Z,52425.38
2022-11-08T05:44:36.369Z,52410.52
2022-11-08T05:47:08.338Z,52423.77
2022-11-08T05:49:39.724Z,52425.79
2022-11-08T05:52:11.398Z,52415.34
2022-11-08T05:54:41.238Z,52425.38
2022-11-08T05:57:12.773Z,52416.14
2022-11-08T05:59:44.357Z,52418.55
2022-11-08T06:02:15.924Z,52418.55
2022-11-08T06:04:47.710Z,52421.77
2022-11-08T06:07:19.266Z,52416.14
2022-11-08T06:09:49.112Z,52429.40
2022-11-08T06:12:20.547Z,52413.33
2022-11-08T06:14:52.137Z,52436.24
2022-11-08T06:17:26.320Z,52439.45
2022-11-08T06:20:00.647Z,52422.17
2022-11-08T06:22:34.471Z,52422.57
2022-11-08T06:25:06.468Z,52407.70
2022-11-08T06:27:37.992Z,52425.79
2022-11-08T06:30:12.153Z,52414.13
2022-11-08T06:32:43.809Z,52402.88
2022-11-08T06:35:14.004Z,52411.32
2022-11-08T06:37:46.095Z,52404.89
2022-11-08T06:40:18.096Z,52405.29
2022-11-08T06:42:49.896Z,52404.48
2022-11-08T06:45:21.561Z,52400.47
2022-11-08T06:47:57.802Z,52393.23
2022-11-08T06:50:29.662Z,52411.72
2022-11-08T06:53:01.342Z,52407.30
2022-11-08T06:55:31.398Z,52395.65
2022-11-08T06:58:02.745Z,52387.61
2022-11-08T07:00:34.201Z,52383.59
2022-11-08T07:03:05.896Z,52407.70
2022-11-08T07:05:37.956Z,52398.86
2022-11-08T07:08:09.962Z,52403.68
2022-11-08T07:10:41.921Z,52398.06
2022-11-08T07:13:13.165Z,52419.76
2022-11-08T07:15:45.528Z,52396.85
2022-11-08T07:18:18.072Z,52419.76
2022-11-08T07:20:50.417Z,52406.50
2022-11-08T07:23:22.250Z,52410.92
2022-11-08T07:25:54.504Z,52406.09
2022-11-08T07:28:24.801Z,52399.66
2022-11-08T07:31:00.502Z,52412.12
2022-11-08T07:33:32.432Z,52400.07
2022-11-08T07:36:04.772Z,52388.81
2022-11-08T07:38:36.618Z,52401.67
2022-11-08T07:41:08.573Z,52404.49
2022-11-08T07:43:40.321Z,52381.18
2022-11-08T07:46:18.464Z,52404.09
2022-11-08T07:48:50.121Z,52417.34
2022-11-08T07:51:22.482Z,52400.47
2022-11-08T07:53:53.824Z,52408.10
2022-11-08T07:56:26.247Z,52398.05
2022-11-08T07:58:58.102Z,52387.21
2022-11-08T08:01:30.195Z,52404.49
2022-11-08T08:04:01.739Z,52393.24
2022-11-08T08:06:34.566Z,52401.68
2022-11-08T08:09:06.082Z,52408.50
2022-11-08T08:11:37.749Z,52383.99
2022-11-08T08:14:09.566Z,52393.23
2022-11-08T08:16:41.349Z,52385.20
2022-11-08T08:19:12.944Z,52389.62
2022-11-08T08:21:45.289Z,52382.79
2022-11-08T08:24:16.939Z,52391.23
2022-11-08T08:26:48.942Z,52386.40
2022-11-08T08:29:20.493Z,52389.21
2022-11-08T08:31:50.554Z,52382.38
2022-11-08T08:34:22.254Z,52388.41
2022-11-08T08:36:54.072Z,52383.19
2022-11-08T08:39:25.525Z,52394.04
2022-11-08T08:41:57.440Z,52394.04
2022-11-08T08:44:28.795Z,52386.00
2022-11-08T08:47:00.375Z,52377.96
2022-11-08T08:49:32.214Z,52405.70
2022-11-08T08:52:03.978Z,52404.49
2022-11-08T08:54:35.780Z,52385.20
2022-11-08T08:57:07.659Z,52400.07
2022-11-08T09:02:29.626Z,52407.70
2022-11-08T09:05:01.119Z,52392.43
2022-11-08T09:07:31.212Z,52402.48
2022-11-08T09:10:02.916Z,52400.07
2022-11-08T09:12:34.461Z,52401.27
2022-11-08T09:15:06.276Z,52390.02
2022-11-08T09:17:37.935Z,52393.64
2022-11-08T09:20:08.657Z,52381.58
2022-11-08T09:22:40.388Z,52389.62
2022-11-08T09:25:12.806Z,52375.95
2022-11-08T09:27:44.236Z,52398.86
2022-11-08T09:30:16.962Z,52396.45
2022-11-08T09:33:04.158Z,52376.76
2022-11-08T09:35:35.938Z,52393.64
2022-11-08T09:38:06.186Z,52390.02
2022-11-08T09:40:43.149Z,52387.21
2022-11-08T09:43:28.563Z,52396.85
2022-11-08T09:45:59.950Z,52388.81
2022-11-08T09:48:33.633Z,52384.39
2022-11-08T09:51:08.128Z,52388.01
2022-11-08T09:53:42.170Z,52398.86
2022-11-08T09:56:17.284Z,52387.21
2022-11-08T09:58:51.040Z,52400.06
2022-11-08T10:01:26.949Z,52407.70
2022-11-08T10:04:00.336Z,52399.66
2022-11-08T10:06:43.143Z,52397.26
2022-11-08T10:09:21.742Z,52374.75
2022-11-08T10:12:07.914Z,52373.54
2022-11-08T10:14:54.161Z,52394.84
2022-11-08T10:17:38.163Z,52383.19
2022-11-08T10:20:15.211Z,52393.23
2022-11-08T10:22:47.885Z,52388.82
2022-11-08T10:25:31.049Z,52370.73
2022-11-08T10:28:02.985Z,52386.00
2022-11-08T10:30:36.193Z,52371.13
2022-11-08T10:33:16.220Z,52388.41
2022-11-08T10:35:49.844Z,52383.59
2022-11-08T10:38:23.163Z,52381.58
2022-11-08T10:40:57.505Z,52370.73
2022-11-08T10:43:31.353Z,52388.01
2022-11-08T10:46:02.732Z,52363.90
2022-11-08T10:48:39.133Z,52373.14
2022-11-08T10:51:11.123Z,52381.58
2022-11-08T10:53:46.516Z,52382.79
2022-11-08T10:56:19.827Z,52388.81
2022-11-08T10:58:51.224Z,52381.18
2022-11-08T11:01:23.422Z,52380.78
2022-11-08T11:03:55.485Z,52380.77
2022-11-08T11:06:32.932Z,52383.99
2022-11-08T11:09:05.910Z,52382.79
2022-11-08T11:11:40.385Z,52381.58
2022-11-08T11:14:19.386Z,52375.15
2022-11-08T11:17:02.163Z,52379.98
2022-11-08T11:19:33.582Z,52365.11
2022-11-08T11:22:07.630Z,52366.31
2022-11-08T11:24:39.845Z,52379.97
2022-11-08T11:27:19.675Z,52359.07
2022-11-08T11:29:51.031Z,52369.52
2022-11-08T11:32:27.147Z,52359.88
2022-11-08T11:34:59.660Z,52329.34
2022-11-08T11:37:37.645Z,52357.88
2022-11-08T11:40:17.762Z,52343.40
2022-11-08T11:42:54.640Z,52352.64
2022-11-08T11:45:27.630Z,52357.87
2022-11-08T11:48:01.478Z,52367.11
2022-11-08T11:50:37.293Z,52347.82
2022-11-08T11:53:13.680Z,52338.58
2022-11-08T11:56:08.781Z,52329.34
2022-11-08T11:58:52.120Z,52350.23
2022-11-08T12:01:29.355Z,52334.16
2022-11-08T12:04:18.372Z,52354.26
2022-11-08T12:06:52.067Z,52347.02
2022-11-08T12:09:30.905Z,52347.42
2022-11-08T12:12:09.963Z,52359.07
2022-11-08T12:14:49.245Z,52356.66
2022-11-08T12:17:42.685Z,52349.03
2022-11-08T12:20:27.550Z,52364.30
2022-11-08T12:23:04.975Z,52368.72
2022-11-08T12:25:38.372Z,52368.32
2022-11-08T12:28:15.136Z,52357.07
2022-11-08T12:30:48.574Z,52367.92
2022-11-08T12:33:26.804Z,52372.34
2022-11-08T12:36:08.235Z,52353.85
2022-11-08T12:38:42.618Z,52367.52
2022-11-08T12:41:17.604Z,52343.40
2022-11-08T12:43:59.348Z,52366.31
2022-11-08T12:46:29.158Z,52343.40
2022-11-08T12:49:10.457Z,52338.98
2022-11-08T12:51:52.716Z,52334.56
2022-11-08T12:54:36.019Z,52325.32
2022-11-08T12:57:10.831Z,52320.09
2022-11-08T12:59:43.475Z,52327.73
2022-11-08T13:02:19.375Z,52299.20
2022-11-08T13:04:53.917Z,52314.87
2022-11-08T13:07:34.618Z,52307.63
2022-11-08T13:10:12.472Z,52300.00
2022-11-08T13:12:48.207Z,52318.49
2022-11-08T13:15:21.350Z,52321.30
2022-11-08T13:18:23.493Z,52316.88
2022-11-08T13:20:53.414Z,52337.77
2022-11-08T13:23:28.572Z,52314.06
2022-11-08T13:26:13.406Z,52312.05
2022-11-08T13:28:48.318Z,52304.82
2022-11-08T13:31:49.152Z,52317.27
2022-11-08T13:34:27.819Z,52326.52
2022-11-08T13:37:21.392Z,52324.52
2022-11-08T13:40:02.659Z,52320.89
2022-11-08T13:42:41.054Z,52329.34
2022-11-08T13:45:32.583Z,52337.38
2022-11-08T13:48:06.823Z,52314.87
2022-11-08T13:50:55.099Z,52311.65
2022-11-08T13:53:45.346Z,52326.12
2022-11-08T13:56:47.053Z,52350.63
2022-11-08T13:59:49.504Z,52320.49
2022-11-08T14:02:37.744Z,52340.59
2022-11-08T14:05:27.357Z,52363.49
2022-11-08T14:08:24.678Z,52351.04
2022-11-08T14:11:30.292Z,52377.16
2022-11-08T14:14:23.352Z,52372.34
2022-11-08T14:17:04.668Z,52379.57
2022-11-08T14:19:37.129Z,52388.01
2022-11-08T14:22:12.120Z,52385.60
2022-11-08T14:24:43.895Z,52373.54
2022-11-08T14:27:18.286Z,52394.04
2022-11-08T14:29:50.108Z,52389.21
2022-11-08T14:32:22.211Z,52405.29
2022-11-08T14:34:54.150Z,52385.20
2022-11-08T14:37:27.269Z,52392.03
2022-11-08T14:39:58.800Z,52397.66
2022-11-08T14:42:30.416Z,52409.31
2022-11-08T14:45:01.930Z,52415.34
2022-11-08T14:47:34.065Z,52376.76
2022-11-08T14:50:15.744Z,52408.91
2022-11-08T14:52:45.918Z,52412.93
2022-11-08T14:55:20.299Z,52406.90
2022-11-08T14:57:52.489Z,52412.93
2022-11-08T15:00:27.192Z,52403.29
2022-11-08T15:03:01.178Z,52395.24
2022-11-08T15:05:38.979Z,52402.07
2022-11-08T15:08:17.505Z,52410.91
2022-11-08T15:10:57.571Z,52412.93
2022-11-08T15:13:29.678Z,52416.95
2022-11-08T15:16:04.090Z,52403.28
2022-11-08T15:18:37.155Z,52405.29
2022-11-08T15:21:19.643Z,52409.31
2022-11-08T15:23:53.533Z,52424.98
2022-11-08T15:26:26.888Z,52402.88
2022-11-08T15:29:02.486Z,52414.13
2022-11-08T15:31:36.596Z,52437.44
2022-11-08T15:34:08.461Z,52429.00
2022-11-08T15:36:38.372Z,52411.32
2022-11-08T15:39:19.571Z,52421.37
2022-11-08T15:42:01.159Z,52426.19
2022-11-08T15:44:33.431Z,52419.76
2022-11-08T15:47:03.176Z,52447.49
2022-11-08T15:49:35.113Z,52435.03
2022-11-08T15:52:06.758Z,52415.74
2022-11-08T15:54:38.620Z,52422.17
2022-11-08T15:57:11.764Z,52426.99
2022-11-08T15:59:43.565Z,52440.66
2022-11-08T16:02:15.456Z,52412.52
2022-11-08T16:04:47.030Z,52427.39
2022-11-08T16:07:16.835Z,52412.12
2022-11-08T16:09:48.349Z,52429.81
2022-11-08T16:12:20.190Z,52433.43
2022-11-08T16:14:52.527Z,52450.70
2022-11-08T16:17:24.266Z,52431.01
2022-11-08T16:19:55.723Z,52427.79
2022-11-08T16:22:27.102Z,52427.80
2022-11-08T16:24:58.464Z,52424.58
2022-11-08T16:27:30.148Z,52446.28
2022-11-08T16:30:00.035Z,52431.41
2022-11-08T16:32:31.682Z,52439.45
2022-11-08T16:35:02.979Z,52422.98
2022-11-08T16:37:34.470Z,52437.84
2022-11-08T16:40:06.881Z,52434.23
2022-11-08T16:42:38.409Z,52430.61
2022-11-08T16:45:09.953Z,52434.63
2022-11-08T16:47:41.570Z,52441.86
2022-11-08T16:50:19.112Z,52427.80
2022-11-08T16:52:51.065Z,52441.46
2022-11-08T16:55:23.048Z,52429.40
2022-11-08T16:57:54.616Z,52466.38
2022-11-08T17:00:24.904Z,52434.63
2022-11-08T17:02:56.416Z,52433.82
2022-11-08T17:05:28.500Z,52449.90
2022-11-08T17:08:00.432Z,52443.47
2022-11-08T17:10:32.678Z,52430.21
2022-11-08T17:13:04.415Z,52414.13
2022-11-08T17:15:34.505Z,52434.63
2022-11-08T17:18:06.186Z,52436.64
2022-11-08T17:20:37.487Z,52435.03
2022-11-08T17:23:09.218Z,52453.92
2022-11-08T17:25:40.152Z,52455.13
2022-11-08T17:28:11.523Z,52450.30
2022-11-08T17:30:44.793Z,52447.89
2022-11-08T17:33:16.811Z,52463.57
2022-11-08T17:35:48.744Z,52435.83
2022-11-08T17:38:20.156Z,52449.50
2022-11-08T17:40:51.711Z,52438.65
2022-11-08T17:43:24.369Z,52443.07
2022-11-08T17:45:55.751Z,52442.67
2022-11-08T17:48:27.372Z,52439.05
2022-11-08T17:50:57.073Z,52455.52
2022-11-08T17:53:30.179Z,52436.64
2022-11-08T17:56:02.266Z,52455.52
2022-11-08T17:58:34.413Z,52446.68
2022-11-08T18:01:07.774Z,52432.62
2022-11-08T18:03:39.352Z,52429.00
2022-11-08T18:06:12.695Z,52426.99
2022-11-08T18:08:45.435Z,52436.64
2022-11-08T18:11:17.407Z,52441.86
2022-11-08T18:13:48.918Z,52456.33
2022-11-08T18:16:22.792Z,52455.93
2022-11-08T18:18:54.303Z,52439.45
2022-11-08T18:21:26.140Z,52437.04
2022-11-08T18:24:00.038Z,52449.50
2022-11-08T18:26:31.677Z,52463.96
2022-11-08T18:29:02.099Z,52454.72
2022-11-08T18:31:34.183Z,52446.28
2022-11-08T18:34:05.682Z,52439.05
2022-11-08T18:36:35.756Z,52449.90
2022-11-08T18:39:08.004Z,52445.07
2022-11-08T18:41:39.971Z,52438.24
2022-11-08T18:44:11.575Z,52439.86
2022-11-08T18:46:43.388Z,52444.68
2022-11-08T18:49:15.806Z,52435.83
2022-11-08T18:51:52.788Z,52452.31
2022-11-08T18:54:24.734Z,52447.09
2022-11-08T18:56:56.607Z,52448.29
2022-11-08T18:59:28.104Z,52438.65
2022-11-08T19:01:59.539Z,52451.11
2022-11-08T19:04:31.223Z,52445.48
2022-11-08T19:07:02.900Z,52443.07
2022-11-08T19:09:34.667Z,52457.14
2022-11-08T19:12:06.172Z,52425.79
2022-11-08T19:14:37.780Z,52434.63
2022-11-08T19:17:07.719Z,52442.26
2022-11-08T19:19:39.457Z,52442.26
2022-11-08T19:22:11.222Z,52427.79
2022-11-08T19:24:41.054Z,52448.70
2022-11-08T19:27:12.608Z,52440.25
2022-11-08T19:29:44.271Z,52458.34
2022-11-08T19:32:15.992Z,52444.27
2022-11-08T19:34:49.989Z,52464.36
2022-11-08T19:37:21.899Z,52467.58
2022-11-08T19:39:53.406Z,52440.26
2022-11-08T19:42:25.251Z,52450.70
2022-11-08T19:44:55.228Z,52438.64
2022-11-08T19:47:27.012Z,52442.26
2022-11-08T19:49:59.072Z,52439.45
2022-11-08T19:52:30.633Z,52443.07
2022-11-08T19:55:00.350Z,52451.10
2022-11-08T19:57:35.237Z,52458.34
2022-11-08T20:00:10.606Z,52452.31
2022-11-08T20:02:45.727Z,52457.94
2022-11-08T20:05:17.418Z,52462.36
2022-11-08T20:07:49.297Z,52459.14
2022-11-08T20:10:20.854Z,52462.76
2022-11-08T20:12:50.607Z,52455.52
2022-11-08T20:15:22.676Z,52446.69
2022-11-08T20:17:54.063Z,52459.95
2022-11-08T20:20:25.724Z,52451.10
2022-11-08T20:22:57.330Z,52434.23
2022-11-08T20:25:27.188Z,52459.54
2022-11-08T20:27:58.636Z,52441.46
2022-11-08T20:30:30.286Z,52438.64
2022-11-08T20:33:00.101Z,52450.30
2022-11-08T20:35:31.717Z,52462.36
2022-11-08T20:38:01.433Z,52450.70
2022-11-08T20:40:33.159Z,52453.11
2022-11-08T20:43:02.911Z,52465.98
2022-11-08T20:45:35.020Z,52451.11
2022-11-08T20:48:05.276Z,52454.32
2022-11-08T20:50:36.656Z,52444.27
2022-11-08T20:53:08.222Z,52459.95
2022-11-08T20:55:38.343Z,52459.14
2022-11-08T20:58:10.016Z,52457.13
2022-11-08T21:00:57.702Z,52459.54
2022-11-08T21:03:30.144Z,52445.07
2022-11-08T21:06:02.898Z,52463.16
2022-11-08T21:11:24.380Z,52461.15
2022-11-08T21:13:55.711Z,52460.35
2022-11-08T21:16:33.316Z,52440.66
2022-11-08T21:19:07.122Z,52446.69
2022-11-08T21:21:38.748Z,52464.36
2022-11-08T21:24:09.267Z,52446.28
2022-11-08T21:26:40.727Z,52438.64
2022-11-08T21:29:12.141Z,52455.52
2022-11-08T21:31:43.732Z,52446.28
2022-11-08T21:34:13.447Z,52451.91
2022-11-08T21:36:45.064Z,52454.73
2022-11-08T21:39:14.853Z,52467.98
2022-11-08T21:41:46.590Z,52471.20
2022-11-08T21:44:20.073Z,52469.59
2022-11-08T21:46:52.003Z,52464.77
2022-11-08T21:49:21.752Z,52465.57
2022-11-08T21:51:53.177Z,52463.96
2022-11-08T21:54:24.982Z,52462.36
2022-11-08T21:56:56.537Z,52455.13
2022-11-08T21:59:26.195Z,52442.26
2022-11-08T22:01:57.638Z,52460.75
2022-11-08T22:04:28.989Z,52465.18
2022-11-08T22:06:59.216Z,52464.37
2022-11-08T22:09:30.610Z,52464.77
2022-11-08T22:12:02.067Z,52461.55
2022-11-08T22:14:33.735Z,52451.51
2022-11-08T22:17:04.080Z,52455.93
2022-11-08T22:19:35.747Z,52468.79
2022-11-08T22:22:07.160Z,52456.32
2022-11-08T22:24:38.545Z,52442.66
2022-11-08T22:27:09.932Z,52430.61
2022-11-08T22:29:41.389Z,52440.66
2022-11-08T22:32:13.278Z,52470.79
2022-11-08T22:34:44.650Z,52459.54
2022-11-08T22:37:16.092Z,52453.12
2022-11-08T22:39:47.526Z,52441.86
2022-11-08T22:42:18.984Z,52456.73
2022-11-08T22:44:50.358Z,52464.37
2022-11-08T22:47:20.323Z,52473.61
2022-11-08T22:49:51.938Z,52463.96
2022-11-08T22:52:21.648Z,52441.86
2022-11-08T22:54:53.029Z,52466.38
2022-11-08T22:57:24.517Z,52457.53
2022-11-08T22:59:55.870Z,52465.57
2022-11-08T23:02:32.754Z,52449.90
2022-11-08T23:05:04.686Z,52441.86
2022-11-08T23:07:34.558Z,52438.64
2022-11-08T23:10:06.533Z,52438.65
2022-11-08T23:12:55.744Z,52457.54
2022-11-08T23:15:50.347Z,52445.88
2022-11-08T23:18:21.850Z,52460.75
2022-11-08T23:21:15.475Z,52454.72
2022-11-08T23:24:19.136Z,52441.05
2022-11-08T23:27:08.327Z,52448.70
2022-11-08T23:29:57.693Z,52454.32
2022-11-08T23:32:29.369Z,52435.03
2022-11-08T23:35:01.076Z,52462.36
2022-11-08T23:37:31.130Z,52449.09
2022-11-08T23:40:20.224Z,52434.23
2022-11-08T23:43:10.388Z,52434.23
2022-11-08T23:45:41.761Z,52449.09
2022-11-08T23:48:13.283Z,52461.95
2022-11-08T23:50:43.495Z,52457.54
2022-11-08T23:53:15.098Z,52454.73
2022-11-08T23:55:46.953Z,52465.57
2022-11-08T23:58:19.259Z,52447.89
